createdAt,value
2018-09-09T00:01:07.789Z,2.70
2018-09-09T00:03:35.923Z,2.13
2018-09-09T00:06:04.059Z,2.50
2018-09-09T00:08:32.196Z,2.57
2018-09-09T00:11:00.319Z,2.30
2018-09-09T00:13:28.459Z,2.27
2018-09-09T00:15:56.591Z,2.70
2018-09-09T00:18:24.891Z,2.57
2018-09-09T00:20:53.014Z,2.40
2018-09-09T00:23:21.155Z,2.47
2018-09-09T00:25:49.279Z,2.50
2018-09-09T00:28:17.424Z,2.60
2018-09-09T00:30:45.563Z,2.40
2018-09-09T00:33:13.695Z,2.60
2018-09-09T00:35:41.936Z,3.10
2018-09-09T00:38:10.120Z,2.70
2018-09-09T00:40:38.239Z,2.90
2018-09-09T00:43:06.432Z,2.70
2018-09-09T00:45:34.556Z,3.07
2018-09-09T00:48:02.699Z,2.80
2018-09-09T00:50:36.133Z,2.97
2018-09-09T00:53:09.819Z,2.73
2018-09-09T00:55:37.968Z,2.50
2018-09-09T00:58:06.115Z,2.70
2018-09-09T01:00:39.800Z,3.17
2018-09-09T01:03:07.931Z,2.80
2018-09-09T01:05:36.054Z,2.67
2018-09-09T01:08:04.191Z,3.20
2018-09-09T01:10:32.311Z,2.90
2018-09-09T01:13:00.432Z,2.80
2018-09-09T01:15:28.551Z,2.90
2018-09-09T01:17:56.691Z,3.30
2018-09-09T01:20:24.798Z,3.00
2018-09-09T01:22:52.947Z,3.40
2018-09-09T01:25:21.067Z,2.90
2018-09-09T01:27:49.196Z,2.90
2018-09-09T01:30:17.531Z,2.97
2018-09-09T01:32:45.649Z,3.10
2018-09-09T01:35:13.783Z,3.37
2018-09-09T01:37:41.898Z,3.17
2018-09-09T01:40:10.019Z,3.50
2018-09-09T01:42:38.142Z,3.80
2018-09-09T01:45:06.436Z,3.47
2018-09-09T01:47:34.607Z,3.57
2018-09-09T01:50:02.781Z,3.63
2018-09-09T01:52:30.896Z,3.87
2018-09-09T01:54:59.025Z,3.93
2018-09-09T01:57:27.135Z,3.80
2018-09-09T01:59:55.266Z,3.90
2018-09-09T02:02:23.391Z,3.90
2018-09-09T02:04:51.532Z,3.77
2018-09-09T02:07:19.677Z,3.90
2018-09-09T02:09:47.822Z,3.73
2018-09-09T02:12:15.946Z,3.40
2018-09-09T02:14:44.079Z,4.07
2018-09-09T02:17:12.204Z,3.70
2018-09-09T02:19:40.350Z,3.40
2018-09-09T02:22:08.477Z,3.50
2018-09-09T02:24:36.603Z,3.80
2018-09-09T02:27:04.744Z,4.13
2018-09-09T02:29:32.884Z,4.13
2018-09-09T02:32:01.014Z,3.87
2018-09-09T02:34:29.164Z,4.07
2018-09-09T02:36:57.320Z,4.23
2018-09-09T02:39:25.458Z,4.20
2018-09-09T02:41:53.589Z,3.77
2018-09-09T02:44:21.725Z,3.90
2018-09-09T02:46:49.848Z,3.80
2018-09-09T02:49:17.994Z,4.30
2018-09-09T02:51:46.115Z,4.30
2018-09-09T02:54:14.254Z,3.87
2018-09-09T02:56:42.376Z,4.00
2018-09-09T02:59:10.503Z,3.70
2018-09-09T03:01:38.631Z,4.10
2018-09-09T03:04:06.957Z,4.23
2018-09-09T03:06:35.103Z,3.67
2018-09-09T03:09:03.308Z,4.00
2018-09-09T03:11:31.451Z,3.40
2018-09-09T03:13:59.572Z,4.43
2018-09-09T03:16:27.746Z,4.20
2018-09-09T03:18:55.867Z,4.67
2018-09-09T03:21:24.020Z,4.13
2018-09-09T03:23:52.153Z,4.43
2018-09-09T03:26:20.300Z,4.40
2018-09-09T03:28:48.515Z,4.40
2018-09-09T03:31:16.579Z,4.30
2018-09-09T03:33:44.704Z,4.07
2018-09-09T03:36:12.847Z,4.40
2018-09-09T03:38:40.975Z,4.47
2018-09-09T03:41:09.114Z,4.60
2018-09-09T03:43:37.238Z,4.37
2018-09-09T03:46:05.387Z,4.57
2018-09-09T03:48:33.516Z,4.50
2018-09-09T03:51:01.644Z,4.60
2018-09-09T03:53:29.775Z,4.10
2018-09-09T03:55:57.914Z,4.53
2018-09-09T03:58:26.040Z,4.20
2018-09-09T04:00:54.190Z,4.67
2018-09-09T04:03:22.356Z,4.47
2018-09-09T04:05:50.495Z,4.20
2018-09-09T04:08:18.629Z,4.40
2018-09-09T04:10:46.756Z,4.60
2018-09-09T04:13:14.888Z,4.00
2018-09-09T04:15:43.019Z,4.20
2018-09-09T04:18:11.234Z,4.33
2018-09-09T04:20:39.371Z,3.90
2018-09-09T04:23:07.496Z,4.00
2018-09-09T04:25:35.640Z,4.50
2018-09-09T04:28:03.998Z,4.57
2018-09-09T04:30:32.136Z,4.60
2018-09-09T04:33:00.259Z,4.20
2018-09-09T04:35:28.394Z,4.50
2018-09-09T04:37:56.524Z,5.10
2018-09-09T04:40:24.662Z,4.60
2018-09-09T04:42:52.807Z,4.80
2018-09-09T04:45:20.956Z,5.50
2018-09-09T04:47:49.162Z,4.63
2018-09-09T04:50:17.352Z,4.87
2018-09-09T04:52:45.487Z,4.73
2018-09-09T04:55:13.631Z,4.60
2018-09-09T04:57:41.785Z,4.90
2018-09-09T05:00:09.906Z,4.67
2018-09-09T05:02:38.034Z,4.90
2018-09-09T05:05:06.811Z,5.27
2018-09-09T05:07:34.967Z,4.93
2018-09-09T05:10:03.107Z,4.97
2018-09-09T05:12:31.251Z,5.63
2018-09-09T05:14:59.378Z,5.50
2018-09-09T05:17:27.525Z,5.33
2018-09-09T05:19:55.657Z,5.47
2018-09-09T05:22:23.812Z,5.00
2018-09-09T05:24:51.931Z,4.73
2018-09-09T05:27:20.078Z,4.70
2018-09-09T05:29:48.213Z,5.33
2018-09-09T05:32:16.369Z,4.90
2018-09-09T05:34:44.512Z,5.40
2018-09-09T05:37:12.649Z,4.60
2018-09-09T05:39:40.786Z,5.23
2018-09-09T05:42:08.960Z,5.20
2018-09-09T05:44:37.108Z,4.97
2018-09-09T05:47:05.223Z,5.30
2018-09-09T05:49:33.410Z,4.93
2018-09-09T05:52:01.551Z,5.60
2018-09-09T05:54:29.683Z,5.63
2018-09-09T05:56:57.827Z,5.13
2018-09-09T05:59:25.960Z,5.40
2018-09-09T06:01:54.123Z,4.80
2018-09-09T06:04:22.287Z,4.83
2018-09-09T06:06:50.407Z,4.20
2018-09-09T06:09:18.542Z,3.73
2018-09-09T06:11:46.675Z,4.13
2018-09-09T06:14:14.832Z,3.90
2018-09-09T06:16:42.948Z,4.00
2018-09-09T06:19:11.105Z,4.30
2018-09-09T06:21:39.244Z,3.80
2018-09-09T06:24:07.376Z,4.20
2018-09-09T06:26:35.504Z,3.90
2018-09-09T06:29:03.684Z,3.50
2018-09-09T06:31:31.802Z,4.27
2018-09-09T06:34:00.042Z,3.77
2018-09-09T06:36:28.339Z,4.17
2018-09-09T06:38:56.546Z,3.90
2018-09-09T06:41:24.611Z,3.73
2018-09-09T06:43:52.791Z,4.20
2018-09-09T06:46:20.930Z,4.03
2018-09-09T06:48:49.069Z,4.00
2018-09-09T06:51:17.197Z,3.97
2018-09-09T06:53:45.334Z,3.87
2018-09-09T06:56:13.451Z,3.67
2018-09-09T06:58:41.594Z,3.60
2018-09-09T07:01:09.724Z,3.90
2018-09-09T07:03:37.907Z,3.70
2018-09-09T07:06:06.084Z,4.30
2018-09-09T07:08:34.250Z,4.00
2018-09-09T07:11:02.531Z,3.57
2018-09-09T07:13:30.544Z,3.80
2018-09-09T07:15:58.669Z,3.83
2018-09-09T07:18:26.792Z,3.77
2018-09-09T07:20:54.940Z,4.00
2018-09-09T07:23:23.064Z,3.73
2018-09-09T07:25:51.213Z,3.53
2018-09-09T07:28:19.379Z,3.67
2018-09-09T07:30:47.574Z,3.60
2018-09-09T07:33:15.696Z,3.50
2018-09-09T07:35:43.843Z,3.80
2018-09-09T07:38:11.977Z,3.90
2018-09-09T07:40:40.114Z,3.47
2018-09-09T07:43:08.245Z,3.10
2018-09-09T07:45:36.381Z,3.57
2018-09-09T07:48:04.491Z,3.40
2018-09-09T07:50:32.714Z,3.30
2018-09-09T07:53:00.850Z,3.50
2018-09-09T07:55:28.980Z,3.50
2018-09-09T07:57:57.123Z,3.47
2018-09-09T08:00:25.296Z,4.00
2018-09-09T08:02:53.391Z,3.37
2018-09-09T08:05:21.796Z,3.70
2018-09-09T08:07:50.488Z,3.80
2018-09-09T08:10:18.614Z,3.87
2018-09-09T08:12:46.730Z,3.73
2018-09-09T08:15:14.870Z,3.70
2018-09-09T08:17:43.168Z,3.90
2018-09-09T08:20:11.299Z,4.10
2018-09-09T08:22:39.634Z,3.97
2018-09-09T08:25:07.779Z,3.80
2018-09-09T08:27:36.394Z,4.07
2018-09-09T08:30:04.668Z,3.40
2018-09-09T08:32:32.909Z,3.50
2018-09-09T08:37:33.435Z,3.27
2018-09-09T08:40:01.557Z,2.77
2018-09-09T08:42:29.733Z,3.30
2018-09-09T08:44:57.943Z,3.40
2018-09-09T08:47:26.101Z,3.13
2018-09-09T08:49:54.233Z,2.80
2018-09-09T08:52:22.367Z,2.90
2018-09-09T08:54:50.511Z,2.50
2018-09-09T08:57:18.807Z,2.53
2018-09-09T08:59:47.183Z,2.47
2018-09-09T09:02:15.342Z,2.40
2018-09-09T09:04:43.467Z,2.30
2018-09-09T09:07:11.602Z,2.47
2018-09-09T09:09:39.730Z,2.60
2018-09-09T09:12:11.778Z,2.23
2018-09-09T09:14:41.077Z,1.93
2018-09-09T09:17:09.218Z,2.17
2018-09-09T09:19:37.813Z,2.30
2018-09-09T09:22:06.736Z,2.00
2018-09-09T09:24:34.867Z,2.60
2018-09-09T09:27:03.074Z,2.10
2018-09-09T09:29:36.720Z,1.70
2018-09-09T09:32:04.920Z,1.50
2018-09-09T09:34:33.098Z,1.70
2018-09-09T09:37:01.227Z,1.90
2018-09-09T09:39:29.380Z,2.00
2018-09-09T09:41:57.510Z,1.67
2018-09-09T09:44:25.634Z,1.80
2018-09-09T09:46:53.835Z,1.30
2018-09-09T09:49:21.994Z,1.53
2018-09-09T09:51:50.111Z,1.53
2018-09-09T09:54:18.252Z,1.83
2018-09-09T09:56:46.400Z,1.63
2018-09-09T09:59:14.531Z,1.90
2018-09-09T10:01:42.668Z,1.77
2018-09-09T10:04:10.787Z,1.80
2018-09-09T10:06:38.938Z,2.23
2018-09-09T10:09:07.162Z,2.20
2018-09-09T10:11:35.282Z,1.93
2018-09-09T10:14:03.422Z,2.10
2018-09-09T10:16:31.561Z,1.63
2018-09-09T10:18:59.706Z,1.70
2018-09-09T10:21:27.841Z,1.80
2018-09-09T10:23:56.132Z,1.93
2018-09-09T10:26:24.248Z,1.60
2018-09-09T10:28:52.396Z,1.50
2018-09-09T10:31:20.520Z,1.47
2018-09-09T10:33:48.807Z,1.43
2018-09-09T10:36:16.962Z,1.40
2018-09-09T10:38:45.124Z,1.73
2018-09-09T10:41:13.244Z,1.83
2018-09-09T10:43:41.390Z,1.50
2018-09-09T10:46:10.102Z,1.60
2018-09-09T10:48:38.227Z,1.80
2018-09-09T10:51:06.634Z,1.60
2018-09-09T10:53:34.774Z,1.67
2018-09-09T10:56:02.915Z,1.70
2018-09-09T10:58:31.043Z,2.00
2018-09-09T11:00:59.167Z,1.90
2018-09-09T11:03:27.306Z,1.80
2018-09-09T11:05:55.432Z,2.10
2018-09-09T11:08:23.584Z,2.27
2018-09-09T11:10:51.700Z,1.90
2018-09-09T11:13:20.426Z,2.13
2018-09-09T11:15:48.603Z,1.80
2018-09-09T11:18:16.730Z,2.20
2018-09-09T11:20:44.935Z,2.50
2018-09-09T11:23:13.145Z,2.23
2018-09-09T11:25:41.267Z,2.23
2018-09-09T11:28:09.512Z,2.27
2018-09-09T11:30:37.676Z,2.57
2018-09-09T11:33:05.816Z,2.20
2018-09-09T11:35:33.963Z,1.97
2018-09-09T11:38:02.091Z,1.60
2018-09-09T11:40:30.228Z,1.98
2018-09-09T11:42:58.607Z,1.60
2018-09-09T11:45:26.753Z,2.00
2018-09-09T11:47:54.972Z,1.90
2018-09-09T11:50:23.109Z,1.80
2018-09-09T11:52:51.233Z,1.40
2018-09-09T11:55:19.371Z,1.80
2018-09-09T11:57:47.501Z,1.60
2018-09-09T12:00:15.634Z,1.75
2018-09-09T12:02:44.332Z,1.50
2018-09-09T12:05:12.469Z,1.60
2018-09-09T12:07:40.595Z,1.60
2018-09-09T12:10:08.736Z,1.72
2018-09-09T12:12:36.963Z,1.80
2018-09-09T12:15:05.093Z,1.70
2018-09-09T12:17:33.237Z,1.60
2018-09-09T12:20:01.374Z,1.80
2018-09-09T12:22:29.512Z,1.60
2018-09-09T12:24:57.632Z,1.80
2018-09-09T12:27:25.767Z,1.85
2018-09-09T12:29:53.913Z,1.80
2018-09-09T12:32:22.098Z,1.80
2018-09-09T12:34:50.179Z,1.80
2018-09-09T12:37:18.318Z,1.82
2018-09-09T12:39:46.445Z,1.65
2018-09-09T12:42:14.588Z,1.87
2018-09-09T12:44:48.335Z,1.62
2018-09-09T12:47:21.912Z,1.85
2018-09-09T12:49:50.051Z,1.40
2018-09-09T12:52:18.170Z,1.70
2018-09-09T12:54:46.302Z,1.70
2018-09-09T12:57:14.435Z,1.53
2018-09-09T12:59:42.563Z,1.63
2018-09-09T13:02:10.695Z,1.77
2018-09-09T13:04:38.824Z,1.53
2018-09-09T13:07:07.637Z,1.30
2018-09-09T13:09:35.760Z,1.40
2018-09-09T13:12:03.886Z,1.63
2018-09-09T13:14:32.011Z,1.67
2018-09-09T13:17:00.200Z,1.50
2018-09-09T13:19:28.433Z,1.33
2018-09-09T13:21:56.579Z,1.50
2018-09-09T13:24:24.719Z,1.40
2018-09-09T13:26:53.210Z,1.75
2018-09-09T13:29:21.401Z,1.57
2018-09-09T13:31:49.554Z,1.57
2018-09-09T13:34:17.690Z,1.40
2018-09-09T13:36:45.835Z,1.40
2018-09-09T13:39:13.967Z,1.70
2018-09-09T13:41:42.102Z,1.52
2018-09-09T13:44:10.243Z,1.40
2018-09-09T13:46:38.400Z,1.40
2018-09-09T13:49:06.620Z,1.40
2018-09-09T13:51:34.760Z,1.20
2018-09-09T13:54:02.891Z,1.40
2018-09-09T13:56:31.036Z,1.27
2018-09-09T13:58:59.194Z,1.00
2018-09-09T14:01:27.647Z,1.07
2018-09-09T14:03:55.941Z,1.40
2018-09-09T14:06:23.960Z,1.20
2018-09-09T14:08:52.113Z,1.55
2018-09-09T14:11:20.254Z,1.25
2018-09-09T14:13:49.317Z,1.25
2018-09-09T14:16:17.449Z,1.17
2018-09-09T14:18:45.819Z,1.30
2018-09-09T14:21:13.934Z,1.30
2018-09-09T14:23:42.073Z,1.52
2018-09-09T14:26:10.187Z,1.52
2018-09-09T14:28:38.342Z,1.02
2018-09-09T14:31:06.456Z,1.30
2018-09-09T14:33:34.590Z,1.35
2018-09-09T14:36:02.710Z,1.25
2018-09-09T14:38:30.842Z,1.30
2018-09-09T14:40:58.970Z,1.17
2018-09-09T14:43:27.097Z,1.27
2018-09-09T14:45:55.226Z,1.22
2018-09-09T14:48:23.356Z,1.45
2018-09-09T14:50:51.468Z,1.40
2018-09-09T14:53:20.102Z,1.50
2018-09-09T14:55:48.071Z,1.50
2018-09-09T14:58:16.271Z,1.20
2018-09-09T15:00:44.381Z,1.10
2018-09-09T15:03:12.516Z,1.40
2018-09-09T15:05:40.632Z,1.50
2018-09-09T15:08:08.764Z,1.40
2018-09-09T15:10:36.881Z,1.40
2018-09-09T15:13:05.230Z,1.30
2018-09-09T15:15:33.360Z,1.40
2018-09-09T15:18:01.864Z,1.52
2018-09-09T15:20:30.043Z,1.30
2018-09-09T15:22:58.176Z,1.30
2018-09-09T15:25:26.283Z,1.25
2018-09-09T15:27:54.482Z,1.10
2018-09-09T15:30:22.619Z,1.20
2018-09-09T15:32:50.789Z,1.20
2018-09-09T15:35:18.915Z,1.30
2018-09-09T15:37:47.114Z,1.42
2018-09-09T15:40:15.313Z,1.30
2018-09-09T15:42:44.848Z,1.60
2018-09-09T15:45:13.161Z,1.30
2018-09-09T15:47:41.313Z,1.45
2018-09-09T15:50:09.457Z,1.52
2018-09-09T15:52:37.643Z,1.27
2018-09-09T15:55:05.855Z,1.27
2018-09-09T15:57:33.971Z,1.30
2018-09-09T16:00:02.096Z,1.10
2018-09-09T16:02:30.219Z,1.20
2018-09-09T16:04:58.354Z,1.30
2018-09-09T16:07:26.560Z,1.30
2018-09-09T16:09:54.629Z,1.10
2018-09-09T16:12:23.836Z,1.40
2018-09-09T16:14:51.976Z,1.37
2018-09-09T16:17:20.159Z,2.15
2018-09-09T16:19:48.287Z,1.30
2018-09-09T16:22:16.411Z,1.30
2018-09-09T16:24:44.642Z,1.65
2018-09-09T16:27:12.772Z,2.10
2018-09-09T16:29:40.948Z,2.50
2018-09-09T16:32:09.187Z,1.52
2018-09-09T16:34:37.410Z,1.72
2018-09-09T16:37:05.556Z,6.90
2018-09-09T16:39:33.698Z,2.05
2018-09-09T16:42:01.832Z,1.30
2018-09-09T16:44:29.962Z,1.30
2018-09-09T16:46:58.128Z,1.30
2018-09-09T16:49:26.243Z,1.40
2018-09-09T16:51:54.364Z,1.40
2018-09-09T16:54:22.547Z,1.13
2018-09-09T16:56:50.768Z,1.40
2018-09-09T16:59:18.924Z,1.40
2018-09-09T17:01:47.042Z,1.30
2018-09-09T17:04:15.172Z,1.30
2018-09-09T17:06:43.309Z,1.27
2018-09-09T17:09:12.035Z,1.27
2018-09-09T17:11:40.633Z,1.47
2018-09-09T17:14:08.815Z,1.30
2018-09-09T17:16:37.023Z,1.37
2018-09-09T17:19:05.149Z,1.50
2018-09-09T17:21:34.217Z,1.60
2018-09-09T17:24:02.452Z,1.47
2018-09-09T17:26:30.614Z,1.33
2018-09-09T17:28:58.747Z,1.20
2018-09-09T17:31:26.900Z,1.50
2018-09-09T17:33:55.028Z,1.67
2018-09-09T17:36:23.510Z,1.40
2018-09-09T17:38:51.653Z,1.50
2018-09-09T17:41:19.784Z,1.50
2018-09-09T17:43:47.910Z,1.60
2018-09-09T17:46:16.067Z,1.40
2018-09-09T17:48:44.190Z,1.50
2018-09-09T17:51:12.313Z,1.60
2018-09-09T17:53:40.463Z,1.70
2018-09-09T17:56:08.632Z,1.60
2018-09-09T17:58:36.826Z,1.60
2018-09-09T18:01:05.101Z,1.60
2018-09-09T18:03:33.421Z,1.30
2018-09-09T18:06:01.572Z,1.43
2018-09-09T18:08:29.723Z,1.50
2018-09-09T18:10:57.956Z,1.50
2018-09-09T18:13:26.169Z,1.30
2018-09-09T18:15:54.361Z,1.87
2018-09-09T18:18:22.487Z,1.70
2018-09-09T18:20:50.667Z,1.70
2018-09-09T18:23:18.745Z,1.53
2018-09-09T18:25:46.872Z,1.60
2018-09-09T18:28:15.011Z,1.80
2018-09-09T18:30:43.165Z,1.70
2018-09-09T18:33:11.287Z,1.67
2018-09-09T18:35:39.428Z,1.87
2018-09-09T18:38:07.547Z,1.80
2018-09-09T18:40:35.676Z,1.73
2018-09-09T18:43:03.811Z,1.53
2018-09-09T18:45:31.941Z,1.40
2018-09-09T18:48:00.088Z,1.57
2018-09-09T18:50:28.208Z,1.77
2018-09-09T18:52:56.347Z,1.70
2018-09-09T18:55:24.475Z,1.60
2018-09-09T18:57:52.756Z,2.03
2018-09-09T19:00:20.905Z,1.60
2018-09-09T19:02:49.096Z,1.80
2018-09-09T19:05:17.220Z,1.70
2018-09-09T19:07:45.382Z,1.70
2018-09-09T19:10:13.588Z,1.80
2018-09-09T19:12:41.719Z,1.53
2018-09-09T19:15:09.849Z,1.73
2018-09-09T19:17:38.004Z,1.80
2018-09-09T19:20:06.255Z,1.63
2018-09-09T19:22:34.388Z,1.90
2018-09-09T19:25:02.514Z,1.63
2018-09-09T19:27:30.640Z,1.73
2018-09-09T19:29:58.767Z,1.77
2018-09-09T19:32:26.902Z,2.00
2018-09-09T19:34:55.155Z,1.70
2018-09-09T19:37:23.299Z,1.60
2018-09-09T19:39:51.418Z,1.90
2018-09-09T19:42:19.567Z,1.87
2018-09-09T19:44:47.715Z,1.60
2018-09-09T19:47:15.843Z,1.67
2018-09-09T19:49:43.999Z,1.83
2018-09-09T19:52:13.976Z,1.77
2018-09-09T19:54:42.232Z,2.00
2018-09-09T19:57:10.399Z,1.67
2018-09-09T19:59:38.519Z,1.83
2018-09-09T20:02:06.645Z,1.60
2018-09-09T20:04:34.910Z,1.50
2018-09-09T20:07:02.985Z,1.60
2018-09-09T20:09:31.117Z,1.60
2018-09-09T20:12:00.260Z,1.67
2018-09-09T20:14:28.392Z,1.70
2018-09-09T20:16:56.533Z,1.73
2018-09-09T20:19:24.654Z,1.70
2018-09-09T20:21:52.775Z,1.83
2018-09-09T20:24:20.905Z,2.00
2018-09-09T20:26:49.025Z,1.70
2018-09-09T20:29:17.181Z,1.70
2018-09-09T20:31:45.311Z,1.70
2018-09-09T20:34:13.439Z,1.70
2018-09-09T20:36:42.564Z,1.70
2018-09-09T20:39:11.803Z,2.00
2018-09-09T20:41:40.057Z,1.90
2018-09-09T20:44:08.557Z,2.10
2018-09-09T20:46:36.830Z,2.00
2018-09-09T20:49:05.264Z,2.10
2018-09-09T20:51:33.388Z,2.03
2018-09-09T20:54:01.523Z,2.00
2018-09-09T20:56:29.663Z,1.80
2018-09-09T20:58:57.792Z,1.93
2018-09-09T21:01:25.916Z,1.90
2018-09-09T21:03:54.057Z,1.87
2018-09-09T21:06:22.175Z,2.10
2018-09-09T21:08:50.310Z,1.93
2018-09-09T21:11:18.436Z,2.27
2018-09-09T21:13:46.575Z,2.00
2018-09-09T21:16:14.709Z,2.37
2018-09-09T21:18:42.852Z,2.30
2018-09-09T21:21:10.967Z,2.43
2018-09-09T21:23:39.116Z,2.43
2018-09-09T21:26:07.272Z,2.23
2018-09-09T21:28:35.409Z,2.60
2018-09-09T21:31:03.542Z,2.50
2018-09-09T21:33:31.720Z,2.50
2018-09-09T21:35:59.794Z,2.57
2018-09-09T21:38:27.907Z,2.40
2018-09-09T21:40:56.032Z,2.53
2018-09-09T21:43:24.153Z,2.17
2018-09-09T21:45:52.275Z,2.13
2018-09-09T21:48:20.391Z,2.23
2018-09-09T21:50:49.103Z,2.60
2018-09-09T21:53:17.224Z,2.10
2018-09-09T21:55:45.351Z,2.23
2018-09-09T21:58:13.484Z,2.70
2018-09-09T22:01:45.814Z,2.60
2018-09-09T22:04:13.934Z,2.63
2018-09-09T22:06:42.061Z,2.37
2018-09-09T22:09:10.195Z,2.47
2018-09-09T22:11:38.875Z,2.90
2018-09-09T22:14:07.060Z,2.80
2018-09-09T22:16:35.195Z,2.60
2018-09-09T22:19:03.729Z,2.80
2018-09-09T22:21:31.842Z,2.63
2018-09-09T22:23:59.959Z,2.63
2018-09-09T22:26:28.110Z,2.90
2018-09-09T22:28:56.245Z,3.20
2018-09-09T22:31:24.396Z,3.20
2018-09-09T22:33:52.557Z,2.70
2018-09-09T22:36:20.682Z,3.00
2018-09-09T22:38:48.823Z,2.90
2018-09-09T22:41:16.970Z,2.83
2018-09-09T22:43:45.079Z,2.70
2018-09-09T22:46:13.213Z,2.90
2018-09-09T22:48:41.331Z,2.47
2018-09-09T22:51:10.501Z,2.40
2018-09-09T22:53:38.622Z,2.27
2018-09-09T22:56:06.759Z,2.60
2018-09-09T22:58:34.874Z,2.77
2018-09-09T23:01:03.015Z,2.80
2018-09-09T23:03:31.145Z,2.60
2018-09-09T23:05:59.299Z,2.50
2018-09-09T23:08:27.452Z,2.60
2018-09-09T23:10:55.668Z,2.87
2018-09-09T23:13:23.794Z,2.80
2018-09-09T23:15:52.258Z,2.27
2018-09-09T23:18:20.378Z,2.60
2018-09-09T23:20:48.495Z,2.53
2018-09-09T23:23:16.627Z,2.83
2018-09-09T23:25:44.760Z,2.67
2018-09-09T23:28:12.896Z,2.47
2018-09-09T23:30:41.036Z,2.70
2018-09-09T23:33:09.153Z,2.83
2018-09-09T23:35:37.292Z,2.53
2018-09-09T23:38:05.407Z,2.40
2018-09-09T23:40:33.548Z,2.60
2018-09-09T23:43:01.824Z,2.87
2018-09-09T23:45:29.965Z,2.50
2018-09-09T23:47:58.085Z,2.63
2018-09-09T23:50:26.226Z,2.63
2018-09-09T23:52:54.340Z,2.40
2018-09-09T23:55:22.464Z,2.50
2018-09-09T23:57:50.583Z,2.80
